sensor_id;sensor_type;location;lat;lon;timestamp;temperature;humidity
18229;DHT22;9239;50.932;3.142;2022-09-09T00:02:01;15.70;99.90
18229;DHT22;9239;50.932;3.142;2022-09-09T00:04:32;15.70;99.90
18229;DHT22;9239;50.932;3.142;2022-09-09T00:07:04;15.60;99.90
18229;DHT22;9239;50.932;3.142;2022-09-09T00:09:38;15.70;99.90
18229;DHT22;9239;50.932;3.142;2022-09-09T00:12:11;15.60;99.90
18229;DHT22;9239;50.932;3.142;2022-09-09T00:14:46;15.60;99.90
18229;DHT22;9239;50.932;3.142;2022-09-09T00:17:23;15.70;99.90
18229;DHT22;9239;50.932;3.142;2022-09-09T00:19:58;15.70;99.90
18229;DHT22;9239;50.932;3.142;2022-09-09T00:22:29;15.60;99.90
18229;DHT22;9239;50.932;3.142;2022-09-09T00:25:02;15.70;99.90
18229;DHT22;9239;50.932;3.142;2022-09-09T00:27:40;15.70;99.90
18229;DHT22;9239;50.932;3.142;2022-09-09T00:30:15;15.70;99.90
18229;DHT22;9239;50.932;3.142;2022-09-09T00:32:45;15.70;99.90
18229;DHT22;9239;50.932;3.142;2022-09-09T00:35:17;15.70;99.90
18229;DHT22;9239;50.932;3.142;2022-09-09T00:37:46;15.70;99.90
18229;DHT22;9239;50.932;3.142;2022-09-09T00:40:22;15.80;99.90
18229;DHT22;9239;50.932;3.142;2022-09-09T00:42:59;15.80;99.90
18229;DHT22;9239;50.932;3.142;2022-09-09T00:45:46;15.80;99.90
18229;DHT22;9239;50.932;3.142;2022-09-09T00:48:18;15.80;99.90
18229;DHT22;9239;50.932;3.142;2022-09-09T00:50:50;15.80;99.90
18229;DHT22;9239;50.932;3.142;2022-09-09T00:53:32;15.80;99.90
18229;DHT22;9239;50.932;3.142;2022-09-09T00:56:09;15.80;99.90
18229;DHT22;9239;50.932;3.142;2022-09-09T00:58:42;15.70;99.90
18229;DHT22;9239;50.932;3.142;2022-09-09T01:01:10;15.70;99.90
18229;DHT22;9239;50.932;3.142;2022-09-09T01:03:42;15.70;99.90
18229;DHT22;9239;50.932;3.142;2022-09-09T01:06:16;15.70;99.90
18229;DHT22;9239;50.932;3.142;2022-09-09T01:09:10;15.70;99.90
18229;DHT22;9239;50.932;3.142;2022-09-09T01:11:49;15.60;99.90
18229;DHT22;9239;50.932;3.142;2022-09-09T01:14:29;15.60;99.90
18229;DHT22;9239;50.932;3.142;2022-09-09T01:17:01;15.60;99.90
18229;DHT22;9239;50.932;3.142;2022-09-09T01:19:39;15.60;99.90
18229;DHT22;9239;50.932;3.142;2022-09-09T01:22:15;15.60;99.90
18229;DHT22;9239;50.932;3.142;2022-09-09T01:25:01;15.50;99.90
18229;DHT22;9239;50.932;3.142;2022-09-09T01:27:34;15.50;99.90
18229;DHT22;9239;50.932;3.142;2022-09-09T01:30:05;15.60;99.90
18229;DHT22;9239;50.932;3.142;2022-09-09T01:32:41;15.60;99.90
18229;DHT22;9239;50.932;3.142;2022-09-09T01:35:12;15.50;99.90
18229;DHT22;9239;50.932;3.142;2022-09-09T01:37:41;15.60;99.90
18229;DHT22;9239;50.932;3.142;2022-09-09T01:40:08;15.60;99.90
18229;DHT22;9239;50.932;3.142;2022-09-09T01:42:36;15.50;99.90
18229;DHT22;9239;50.932;3.142;2022-09-09T01:45:04;15.60;99.90
18229;DHT22;9239;50.932;3.142;2022-09-09T01:47:31;15.60;99.90
18229;DHT22;9239;50.932;3.142;2022-09-09T01:49:59;15.50;99.90
18229;DHT22;9239;50.932;3.142;2022-09-09T01:52:28;15.60;99.90
18229;DHT22;9239;50.932;3.142;2022-09-09T01:54:55;15.60;99.90
18229;DHT22;9239;50.932;3.142;2022-09-09T01:57:26;15.60;99.90
18229;DHT22;9239;50.932;3.142;2022-09-09T02:00:03;15.60;99.90
18229;DHT22;9239;50.932;3.142;2022-09-09T02:02:35;15.70;99.90
18229;DHT22;9239;50.932;3.142;2022-09-09T02:05:12;15.60;99.90
18229;DHT22;9239;50.932;3.142;2022-09-09T02:07:43;15.60;99.90
18229;DHT22;9239;50.932;3.142;2022-09-09T02:10:17;15.70;99.90
18229;DHT22;9239;50.932;3.142;2022-09-09T02:12:48;15.60;99.90
18229;DHT22;9239;50.932;3.142;2022-09-09T02:15:21;15.70;99.90
18229;DHT22;9239;50.932;3.142;2022-09-09T02:17:52;15.70;99.90
18229;DHT22;9239;50.932;3.142;2022-09-09T02:20:20;15.70;99.90
18229;DHT22;9239;50.932;3.142;2022-09-09T02:22:49;15.60;99.90
18229;DHT22;9239;50.932;3.142;2022-09-09T02:25:19;15.60;99.90
18229;DHT22;9239;50.932;3.142;2022-09-09T02:27:48;15.60;99.90
18229;DHT22;9239;50.932;3.142;2022-09-09T02:30:18;15.60;99.90
18229;DHT22;9239;50.932;3.142;2022-09-09T02:32:46;15.50;99.90
18229;DHT22;9239;50.932;3.142;2022-09-09T02:35:17;15.60;99.90
18229;DHT22;9239;50.932;3.142;2022-09-09T02:37:46;15.60;99.90
18229;DHT22;9239;50.932;3.142;2022-09-09T02:40:14;15.60;99.90
18229;DHT22;9239;50.932;3.142;2022-09-09T02:42:42;15.50;99.90
18229;DHT22;9239;50.932;3.142;2022-09-09T02:45:11;15.40;99.90
18229;DHT22;9239;50.932;3.142;2022-09-09T02:47:43;15.50;99.90
18229;DHT22;9239;50.932;3.142;2022-09-09T02:50:13;15.50;99.90
18229;DHT22;9239;50.932;3.142;2022-09-09T02:52:54;15.50;99.90
18229;DHT22;9239;50.932;3.142;2022-09-09T02:55:29;15.50;99.90
18229;DHT22;9239;50.932;3.142;2022-09-09T02:57:59;15.50;99.90
18229;DHT22;9239;50.932;3.142;2022-09-09T03:00:28;15.50;99.90
18229;DHT22;9239;50.932;3.142;2022-09-09T03:02:56;15.50;99.90
18229;DHT22;9239;50.932;3.142;2022-09-09T03:05:24;15.60;99.90
18229;DHT22;9239;50.932;3.142;2022-09-09T03:07:51;15.60;99.90
18229;DHT22;9239;50.932;3.142;2022-09-09T03:10:18;15.50;99.90
18229;DHT22;9239;50.932;3.142;2022-09-09T03:12:45;15.60;99.90
18229;DHT22;9239;50.932;3.142;2022-09-09T03:15:12;15.70;99.90
18229;DHT22;9239;50.932;3.142;2022-09-09T03:17:40;15.70;99.90
18229;DHT22;9239;50.932;3.142;2022-09-09T03:20:09;15.70;99.90
18229;DHT22;9239;50.932;3.142;2022-09-09T03:22:36;15.80;99.90
18229;DHT22;9239;50.932;3.142;2022-09-09T03:25:03;15.80;99.90
18229;DHT22;9239;50.932;3.142;2022-09-09T03:27:31;15.80;99.90
18229;DHT22;9239;50.932;3.142;2022-09-09T03:29:58;15.80;99.90
18229;DHT22;9239;50.932;3.142;2022-09-09T03:32:29;15.80;99.90
18229;DHT22;9239;50.932;3.142;2022-09-09T03:34:56;15.80;99.90
18229;DHT22;9239;50.932;3.142;2022-09-09T03:37:25;15.70;99.90
18229;DHT22;9239;50.932;3.142;2022-09-09T03:39:51;15.70;99.90
18229;DHT22;9239;50.932;3.142;2022-09-09T03:42:20;15.70;99.90
18229;DHT22;9239;50.932;3.142;2022-09-09T03:44:47;15.80;99.90
18229;DHT22;9239;50.932;3.142;2022-09-09T03:47:16;15.80;99.90
18229;DHT22;9239;50.932;3.142;2022-09-09T03:49:43;15.70;99.90
18229;DHT22;9239;50.932;3.142;2022-09-09T03:52:11;15.70;99.90
18229;DHT22;9239;50.932;3.142;2022-09-09T03:54:39;15.70;99.90
18229;DHT22;9239;50.932;3.142;2022-09-09T03:57:08;15.70;99.90
18229;DHT22;9239;50.932;3.142;2022-09-09T03:59:35;15.70;99.90
18229;DHT22;9239;50.932;3.142;2022-09-09T04:02:02;15.60;99.90
18229;DHT22;9239;50.932;3.142;2022-09-09T04:04:29;15.60;99.90
18229;DHT22;9239;50.932;3.142;2022-09-09T04:06:56;15.60;99.90
18229;DHT22;9239;50.932;3.142;2022-09-09T04:09:23;15.60;99.90
18229;DHT22;9239;50.932;3.142;2022-09-09T04:11:51;15.60;99.90
18229;DHT22;9239;50.932;3.142;2022-09-09T04:14:19;15.60;99.90
18229;DHT22;9239;50.932;3.142;2022-09-09T04:16:46;15.60;99.90
18229;DHT22;9239;50.932;3.142;2022-09-09T04:19:13;15.60;99.90
18229;DHT22;9239;50.932;3.142;2022-09-09T04:21:41;15.60;99.90
18229;DHT22;9239;50.932;3.142;2022-09-09T04:24:08;15.60;99.90
18229;DHT22;9239;50.932;3.142;2022-09-09T04:26:36;15.50;99.90
18229;DHT22;9239;50.932;3.142;2022-09-09T04:29:05;15.40;99.90
18229;DHT22;9239;50.932;3.142;2022-09-09T04:31:33;15.40;99.90
18229;DHT22;9239;50.932;3.142;2022-09-09T04:34:00;15.40;99.90
18229;DHT22;9239;50.932;3.142;2022-09-09T04:36:31;15.40;99.90
18229;DHT22;9239;50.932;3.142;2022-09-09T04:38:59;15.30;99.90
18229;DHT22;9239;50.932;3.142;2022-09-09T04:41:27;15.30;99.90
18229;DHT22;9239;50.932;3.142;2022-09-09T04:43:54;15.30;99.90
18229;DHT22;9239;50.932;3.142;2022-09-09T04:46:22;15.30;99.90
18229;DHT22;9239;50.932;3.142;2022-09-09T04:48:49;15.20;99.90
18229;DHT22;9239;50.932;3.142;2022-09-09T04:51:17;15.30;99.90
18229;DHT22;9239;50.932;3.142;2022-09-09T04:53:45;15.30;99.90
18229;DHT22;9239;50.932;3.142;2022-09-09T04:56:13;15.20;99.90
18229;DHT22;9239;50.932;3.142;2022-09-09T04:58:41;15.20;99.90
18229;DHT22;9239;50.932;3.142;2022-09-09T05:01:10;15.20;99.90
18229;DHT22;9239;50.932;3.142;2022-09-09T05:03:39;15.20;99.90
18229;DHT22;9239;50.932;3.142;2022-09-09T05:06:06;15.10;99.90
18229;DHT22;9239;50.932;3.142;2022-09-09T05:08:35;15.10;99.90
18229;DHT22;9239;50.932;3.142;2022-09-09T05:11:03;15.10;99.90
18229;DHT22;9239;50.932;3.142;2022-09-09T05:13:29;15.10;99.90
18229;DHT22;9239;50.932;3.142;2022-09-09T05:15:57;15.00;99.90
18229;DHT22;9239;50.932;3.142;2022-09-09T05:18:24;15.00;99.90
18229;DHT22;9239;50.932;3.142;2022-09-09T05:20:58;15.00;99.90
18229;DHT22;9239;50.932;3.142;2022-09-09T05:23:25;15.00;99.90
18229;DHT22;9239;50.932;3.142;2022-09-09T05:25:56;15.00;99.90
18229;DHT22;9239;50.932;3.142;2022-09-09T05:28:24;15.00;99.90
18229;DHT22;9239;50.932;3.142;2022-09-09T05:30:56;15.10;99.90
18229;DHT22;9239;50.932;3.142;2022-09-09T05:33:23;15.10;99.90
18229;DHT22;9239;50.932;3.142;2022-09-09T05:35:57;15.10;99.90
18229;DHT22;9239;50.932;3.142;2022-09-09T05:38:24;15.10;99.90
18229;DHT22;9239;50.932;3.142;2022-09-09T05:40:52;15.10;99.90
18229;DHT22;9239;50.932;3.142;2022-09-09T05:43:19;15.10;99.90
18229;DHT22;9239;50.932;3.142;2022-09-09T05:45:46;15.10;99.90
18229;DHT22;9239;50.932;3.142;2022-09-09T05:48:14;15.10;99.90
18229;DHT22;9239;50.932;3.142;2022-09-09T05:50:41;15.20;99.90
18229;DHT22;9239;50.932;3.142;2022-09-09T05:53:10;15.20;99.90
18229;DHT22;9239;50.932;3.142;2022-09-09T05:55:37;15.20;99.90
18229;DHT22;9239;50.932;3.142;2022-09-09T05:58:03;15.20;99.90
18229;DHT22;9239;50.932;3.142;2022-09-09T06:00:30;15.20;99.90
18229;DHT22;9239;50.932;3.142;2022-09-09T06:02:58;15.20;99.90
18229;DHT22;9239;50.932;3.142;2022-09-09T06:05:25;15.20;99.90
18229;DHT22;9239;50.932;3.142;2022-09-09T06:07:54;15.20;99.90
18229;DHT22;9239;50.932;3.142;2022-09-09T06:10:22;15.30;99.90
18229;DHT22;9239;50.932;3.142;2022-09-09T06:12:52;15.30;99.90
18229;DHT22;9239;50.932;3.142;2022-09-09T06:15:19;15.20;99.90
18229;DHT22;9239;50.932;3.142;2022-09-09T06:17:46;15.30;99.90
18229;DHT22;9239;50.932;3.142;2022-09-09T06:20:14;15.30;99.90
18229;DHT22;9239;50.932;3.142;2022-09-09T06:22:41;15.30;99.90
18229;DHT22;9239;50.932;3.142;2022-09-09T06:25:09;15.30;99.90
18229;DHT22;9239;50.932;3.142;2022-09-09T06:27:37;15.30;99.90
18229;DHT22;9239;50.932;3.142;2022-09-09T06:30:05;15.30;99.90
18229;DHT22;9239;50.932;3.142;2022-09-09T06:32:33;15.30;99.90
18229;DHT22;9239;50.932;3.142;2022-09-09T06:35:02;15.20;99.90
18229;DHT22;9239;50.932;3.142;2022-09-09T06:37:29;15.20;99.90
18229;DHT22;9239;50.932;3.142;2022-09-09T06:39:55;15.10;99.90
18229;DHT22;9239;50.932;3.142;2022-09-09T06:42:22;15.10;99.90
18229;DHT22;9239;50.932;3.142;2022-09-09T06:44:51;15.10;99.90
18229;DHT22;9239;50.932;3.142;2022-09-09T06:47:18;15.10;99.90
18229;DHT22;9239;50.932;3.142;2022-09-09T06:49:45;15.10;99.90
18229;DHT22;9239;50.932;3.142;2022-09-09T06:52:12;15.00;99.90
18229;DHT22;9239;50.932;3.142;2022-09-09T06:54:39;15.10;99.90
18229;DHT22;9239;50.932;3.142;2022-09-09T06:57:05;15.10;99.90
18229;DHT22;9239;50.932;3.142;2022-09-09T06:59:33;15.10;99.90
18229;DHT22;9239;50.932;3.142;2022-09-09T07:02:01;15.00;99.90
18229;DHT22;9239;50.932;3.142;2022-09-09T07:04:28;15.00;99.90
18229;DHT22;9239;50.932;3.142;2022-09-09T07:06:55;15.00;99.90
18229;DHT22;9239;50.932;3.142;2022-09-09T07:09:22;15.00;99.90
18229;DHT22;9239;50.932;3.142;2022-09-09T07:11:50;15.00;99.90
18229;DHT22;9239;50.932;3.142;2022-09-09T07:14:18;15.00;99.90
18229;DHT22;9239;50.932;3.142;2022-09-09T07:16:46;15.00;99.90
18229;DHT22;9239;50.932;3.142;2022-09-09T07:19:14;15.00;99.90
18229;DHT22;9239;50.932;3.142;2022-09-09T07:21:42;15.00;99.90
18229;DHT22;9239;50.932;3.142;2022-09-09T07:24:10;15.00;99.90
18229;DHT22;9239;50.932;3.142;2022-09-09T07:26:38;15.00;99.90
18229;DHT22;9239;50.932;3.142;2022-09-09T07:29:05;15.00;99.90
18229;DHT22;9239;50.932;3.142;2022-09-09T07:31:34;15.00;99.90
18229;DHT22;9239;50.932;3.142;2022-09-09T07:34:02;15.10;99.90
18229;DHT22;9239;50.932;3.142;2022-09-09T07:36:32;15.10;99.90
18229;DHT22;9239;50.932;3.142;2022-09-09T07:39:01;15.10;99.90
18229;DHT22;9239;50.932;3.142;2022-09-09T07:41:30;15.10;99.90
18229;DHT22;9239;50.932;3.142;2022-09-09T07:44:03;15.20;99.90
18229;DHT22;9239;50.932;3.142;2022-09-09T07:46:30;15.20;99.90
18229;DHT22;9239;50.932;3.142;2022-09-09T07:48:57;15.20;99.90
18229;DHT22;9239;50.932;3.142;2022-09-09T07:51:25;15.30;99.90
18229;DHT22;9239;50.932;3.142;2022-09-09T07:53:55;15.30;99.90
18229;DHT22;9239;50.932;3.142;2022-09-09T07:56:23;15.40;99.90
18229;DHT22;9239;50.932;3.142;2022-09-09T07:58:51;15.40;99.90
18229;DHT22;9239;50.932;3.142;2022-09-09T08:01:19;15.50;99.90
18229;DHT22;9239;50.932;3.142;2022-09-09T08:03:51;15.50;99.90
18229;DHT22;9239;50.932;3.142;2022-09-09T08:06:19;15.60;99.90
18229;DHT22;9239;50.932;3.142;2022-09-09T08:08:49;15.60;99.90
18229;DHT22;9239;50.932;3.142;2022-09-09T08:11:18;15.60;99.90
18229;DHT22;9239;50.932;3.142;2022-09-09T08:13:45;15.60;99.90
18229;DHT22;9239;50.932;3.142;2022-09-09T08:16:14;15.70;99.90
18229;DHT22;9239;50.932;3.142;2022-09-09T08:18:41;15.70;99.90
18229;DHT22;9239;50.932;3.142;2022-09-09T08:21:10;15.70;99.90
18229;DHT22;9239;50.932;3.142;2022-09-09T08:23:38;15.70;99.90
18229;DHT22;9239;50.932;3.142;2022-09-09T08:26:09;15.80;99.90
18229;DHT22;9239;50.932;3.142;2022-09-09T08:28:38;15.90;99.90
18229;DHT22;9239;50.932;3.142;2022-09-09T08:31:09;15.90;99.90
18229;DHT22;9239;50.932;3.142;2022-09-09T08:33:37;16.00;99.90
18229;DHT22;9239;50.932;3.142;2022-09-09T08:36:05;16.00;99.90
18229;DHT22;9239;50.932;3.142;2022-09-09T08:38:34;16.20;99.90
18229;DHT22;9239;50.932;3.142;2022-09-09T08:41:19;16.40;99.90
18229;DHT22;9239;50.932;3.142;2022-09-09T08:44:00;16.50;99.90
18229;DHT22;9239;50.932;3.142;2022-09-09T08:46:34;16.60;99.90
18229;DHT22;9239;50.932;3.142;2022-09-09T08:49:10;16.60;99.90
18229;DHT22;9239;50.932;3.142;2022-09-09T08:51:42;16.70;99.90
18229;DHT22;9239;50.932;3.142;2022-09-09T08:54:09;16.80;99.90
18229;DHT22;9239;50.932;3.142;2022-09-09T08:56:36;16.80;99.90
18229;DHT22;9239;50.932;3.142;2022-09-09T08:59:04;16.90;99.90
18229;DHT22;9239;50.932;3.142;2022-09-09T09:01:51;17.00;99.90
18229;DHT22;9239;50.932;3.142;2022-09-09T09:04:33;17.20;99.90
18229;DHT22;9239;50.932;3.142;2022-09-09T09:07:12;17.10;99.90
18229;DHT22;9239;50.932;3.142;2022-09-09T09:09:46;17.10;99.90
18229;DHT22;9239;50.932;3.142;2022-09-09T09:12:20;17.10;99.90
18229;DHT22;9239;50.932;3.142;2022-09-09T09:14:49;17.10;99.90
18229;DHT22;9239;50.932;3.142;2022-09-09T09:17:18;17.00;99.90
18229;DHT22;9239;50.932;3.142;2022-09-09T09:19:47;17.00;99.90
18229;DHT22;9239;50.932;3.142;2022-09-09T09:22:18;17.00;99.90
18229;DHT22;9239;50.932;3.142;2022-09-09T09:24:51;16.90;99.90
18229;DHT22;9239;50.932;3.142;2022-09-09T09:27:21;16.90;99.90
18229;DHT22;9239;50.932;3.142;2022-09-09T09:29:55;16.90;99.90
18229;DHT22;9239;50.932;3.142;2022-09-09T09:32:24;16.90;99.90
18229;DHT22;9239;50.932;3.142;2022-09-09T09:34:55;17.00;99.90
18229;DHT22;9239;50.932;3.142;2022-09-09T09:37:27;17.00;99.90
18229;DHT22;9239;50.932;3.142;2022-09-09T09:39:54;17.00;99.90
18229;DHT22;9239;50.932;3.142;2022-09-09T09:42:22;17.10;99.90
18229;DHT22;9239;50.932;3.142;2022-09-09T09:44:49;17.10;99.90
18229;DHT22;9239;50.932;3.142;2022-09-09T09:47:20;17.20;99.90
18229;DHT22;9239;50.932;3.142;2022-09-09T09:49:54;17.30;99.90
18229;DHT22;9239;50.932;3.142;2022-09-09T09:52:23;17.40;99.90
18229;DHT22;9239;50.932;3.142;2022-09-09T09:54:50;17.40;99.90
18229;DHT22;9239;50.932;3.142;2022-09-09T09:57:21;17.40;99.90
18229;DHT22;9239;50.932;3.142;2022-09-09T10:00:01;17.40;99.90
18229;DHT22;9239;50.932;3.142;2022-09-09T10:02:37;17.40;99.90
18229;DHT22;9239;50.932;3.142;2022-09-09T10:05:12;17.40;99.90
18229;DHT22;9239;50.932;3.142;2022-09-09T10:07:39;17.40;99.90
18229;DHT22;9239;50.932;3.142;2022-09-09T10:10:10;17.30;99.90
18229;DHT22;9239;50.932;3.142;2022-09-09T10:12:45;17.30;99.90
18229;DHT22;9239;50.932;3.142;2022-09-09T10:15:27;17.30;99.90
18229;DHT22;9239;50.932;3.142;2022-09-09T10:18:05;17.30;99.90
18229;DHT22;9239;50.932;3.142;2022-09-09T10:20:40;17.40;99.90
18229;DHT22;9239;50.932;3.142;2022-09-09T10:23:20;17.50;99.90
18229;DHT22;9239;50.932;3.142;2022-09-09T10:26:13;17.60;99.90
18229;DHT22;9239;50.932;3.142;2022-09-09T10:29:05;17.70;99.90
18229;DHT22;9239;50.932;3.142;2022-09-09T10:31:41;17.70;99.90
18229;DHT22;9239;50.932;3.142;2022-09-09T10:34:29;17.80;99.90
18229;DHT22;9239;50.932;3.142;2022-09-09T10:37:03;17.80;99.90
18229;DHT22;9239;50.932;3.142;2022-09-09T10:39:36;17.80;99.90
18229;DHT22;9239;50.932;3.142;2022-09-09T10:42:08;17.90;99.90
18229;DHT22;9239;50.932;3.142;2022-09-09T10:44:59;18.00;99.90
18229;DHT22;9239;50.932;3.142;2022-09-09T10:47:56;18.10;99.90
18229;DHT22;9239;50.932;3.142;2022-09-09T10:50:47;18.10;99.90
18229;DHT22;9239;50.932;3.142;2022-09-09T10:53:25;18.10;99.90
18229;DHT22;9239;50.932;3.142;2022-09-09T10:56:03;18.20;99.90
18229;DHT22;9239;50.932;3.142;2022-09-09T10:58:38;18.30;99.90
18229;DHT22;9239;50.932;3.142;2022-09-09T11:01:14;18.30;99.90
18229;DHT22;9239;50.932;3.142;2022-09-09T11:03:43;18.30;99.90
18229;DHT22;9239;50.932;3.142;2022-09-09T11:06:16;18.30;99.90
18229;DHT22;9239;50.932;3.142;2022-09-09T11:08:45;18.20;99.90
18229;DHT22;9239;50.932;3.142;2022-09-09T11:11:17;18.20;99.90
18229;DHT22;9239;50.932;3.142;2022-09-09T11:13:49;18.10;99.90
18229;DHT22;9239;50.932;3.142;2022-09-09T11:16:25;18.10;99.90
18229;DHT22;9239;50.932;3.142;2022-09-09T11:18:57;18.30;99.90
18229;DHT22;9239;50.932;3.142;2022-09-09T11:21:30;18.40;99.90
18229;DHT22;9239;50.932;3.142;2022-09-09T11:24:00;18.50;99.90
18229;DHT22;9239;50.932;3.142;2022-09-09T11:26:33;18.50;99.90
18229;DHT22;9239;50.932;3.142;2022-09-09T11:29:22;18.60;99.90
18229;DHT22;9239;50.932;3.142;2022-09-09T11:32:00;18.60;99.90
18229;DHT22;9239;50.932;3.142;2022-09-09T11:34:43;18.70;99.90
18229;DHT22;9239;50.932;3.142;2022-09-09T11:40:19;18.80;99.90
18229;DHT22;9239;50.932;3.142;2022-09-09T11:42:49;18.70;99.90
18229;DHT22;9239;50.932;3.142;2022-09-09T11:45:28;18.70;99.90
18229;DHT22;9239;50.932;3.142;2022-09-09T11:47:56;18.70;99.90
18229;DHT22;9239;50.932;3.142;2022-09-09T11:50:29;18.60;99.90
18229;DHT22;9239;50.932;3.142;2022-09-09T11:53:18;18.60;99.90
18229;DHT22;9239;50.932;3.142;2022-09-09T11:55:48;18.60;99.90
18229;DHT22;9239;50.932;3.142;2022-09-09T11:58:26;18.60;99.90
18229;DHT22;9239;50.932;3.142;2022-09-09T12:00:54;18.60;99.90
18229;DHT22;9239;50.932;3.142;2022-09-09T12:03:41;18.30;99.90
18229;DHT22;9239;50.932;3.142;2022-09-09T12:06:15;18.10;99.90
18229;DHT22;9239;50.932;3.142;2022-09-09T12:08:48;17.80;99.90
18229;DHT22;9239;50.932;3.142;2022-09-09T12:11:24;17.60;99.90
18229;DHT22;9239;50.932;3.142;2022-09-09T12:13:56;17.50;99.90
18229;DHT22;9239;50.932;3.142;2022-09-09T12:16:32;17.50;99.90
18229;DHT22;9239;50.932;3.142;2022-09-09T12:19:05;17.40;99.90
18229;DHT22;9239;50.932;3.142;2022-09-09T12:21:38;17.40;99.90
18229;DHT22;9239;50.932;3.142;2022-09-09T12:24:09;17.50;99.90
18229;DHT22;9239;50.932;3.142;2022-09-09T12:26:40;17.50;99.90
18229;DHT22;9239;50.932;3.142;2022-09-09T12:29:18;17.50;99.90
18229;DHT22;9239;50.932;3.142;2022-09-09T12:31:53;17.50;99.90
18229;DHT22;9239;50.932;3.142;2022-09-09T12:34:30;17.60;99.90
18229;DHT22;9239;50.932;3.142;2022-09-09T12:37:03;17.60;99.90
18229;DHT22;9239;50.932;3.142;2022-09-09T12:39:35;17.70;99.90
18229;DHT22;9239;50.932;3.142;2022-09-09T12:42:04;17.90;99.90
18229;DHT22;9239;50.932;3.142;2022-09-09T12:44:31;18.00;99.90
18229;DHT22;9239;50.932;3.142;2022-09-09T12:47:01;18.10;99.90
18229;DHT22;9239;50.932;3.142;2022-09-09T12:49:32;18.10;99.90
18229;DHT22;9239;50.932;3.142;2022-09-09T12:52:03;18.10;99.90
18229;DHT22;9239;50.932;3.142;2022-09-09T12:54:33;18.20;99.90
18229;DHT22;9239;50.932;3.142;2022-09-09T12:57:01;18.10;99.90
18229;DHT22;9239;50.932;3.142;2022-09-09T12:59:36;18.10;99.90
18229;DHT22;9239;50.932;3.142;2022-09-09T13:02:16;18.10;99.90
18229;DHT22;9239;50.932;3.142;2022-09-09T13:04:44;17.90;99.90
18229;DHT22;9239;50.932;3.142;2022-09-09T13:07:12;17.80;99.90
18229;DHT22;9239;50.932;3.142;2022-09-09T13:09:43;17.90;99.90
18229;DHT22;9239;50.932;3.142;2022-09-09T13:12:14;17.90;99.90
18229;DHT22;9239;50.932;3.142;2022-09-09T13:14:44;18.00;99.90
18229;DHT22;9239;50.932;3.142;2022-09-09T13:17:19;18.10;99.90
18229;DHT22;9239;50.932;3.142;2022-09-09T13:19:47;18.10;99.90
18229;DHT22;9239;50.932;3.142;2022-09-09T13:22:21;18.20;99.90
18229;DHT22;9239;50.932;3.142;2022-09-09T13:25:04;18.20;99.90
18229;DHT22;9239;50.932;3.142;2022-09-09T13:27:33;18.10;99.90
18229;DHT22;9239;50.932;3.142;2022-09-09T13:30:00;17.90;99.90
18229;DHT22;9239;50.932;3.142;2022-09-09T13:32:28;17.80;99.90
18229;DHT22;9239;50.932;3.142;2022-09-09T13:34:58;17.80;99.90
18229;DHT22;9239;50.932;3.142;2022-09-09T13:37:33;18.00;99.90
18229;DHT22;9239;50.932;3.142;2022-09-09T13:40:03;18.10;99.90
18229;DHT22;9239;50.932;3.142;2022-09-09T13:42:32;18.20;99.90
18229;DHT22;9239;50.932;3.142;2022-09-09T13:45:01;18.20;99.90
18229;DHT22;9239;50.932;3.142;2022-09-09T13:47:32;18.30;99.90
18229;DHT22;9239;50.932;3.142;2022-09-09T13:50:17;18.30;99.90
18229;DHT22;9239;50.932;3.142;2022-09-09T13:52:44;18.40;99.90
18229;DHT22;9239;50.932;3.142;2022-09-09T13:55:14;18.50;99.90
18229;DHT22;9239;50.932;3.142;2022-09-09T13:57:50;18.50;99.90
18229;DHT22;9239;50.932;3.142;2022-09-09T14:00:17;18.60;99.90
18229;DHT22;9239;50.932;3.142;2022-09-09T14:02:45;18.70;99.90
18229;DHT22;9239;50.932;3.142;2022-09-09T14:05:11;18.70;99.90
18229;DHT22;9239;50.932;3.142;2022-09-09T14:07:39;18.80;99.90
18229;DHT22;9239;50.932;3.142;2022-09-09T14:10:07;19.00;99.90
18229;DHT22;9239;50.932;3.142;2022-09-09T14:12:36;19.10;99.90
18229;DHT22;9239;50.932;3.142;2022-09-09T14:15:03;19.20;99.90
18229;DHT22;9239;50.932;3.142;2022-09-09T14:17:30;19.20;99.90
18229;DHT22;9239;50.932;3.142;2022-09-09T14:19:57;19.10;99.90
18229;DHT22;9239;50.932;3.142;2022-09-09T14:22:24;19.20;99.90
18229;DHT22;9239;50.932;3.142;2022-09-09T14:24:52;19.20;99.90
18229;DHT22;9239;50.932;3.142;2022-09-09T14:27:18;19.40;99.90
18229;DHT22;9239;50.932;3.142;2022-09-09T14:29:47;19.50;99.90
18229;DHT22;9239;50.932;3.142;2022-09-09T14:32:14;19.60;99.90
18229;DHT22;9239;50.932;3.142;2022-09-09T14:34:40;19.70;99.90
18229;DHT22;9239;50.932;3.142;2022-09-09T14:37:07;19.70;99.90
18229;DHT22;9239;50.932;3.142;2022-09-09T14:39:34;19.80;99.90
18229;DHT22;9239;50.932;3.142;2022-09-09T14:42:01;19.90;99.90
18229;DHT22;9239;50.932;3.142;2022-09-09T14:44:28;19.90;99.90
18229;DHT22;9239;50.932;3.142;2022-09-09T14:46:56;19.80;99.90
18229;DHT22;9239;50.932;3.142;2022-09-09T14:49:24;19.70;99.90
18229;DHT22;9239;50.932;3.142;2022-09-09T14:51:50;19.60;99.90
18229;DHT22;9239;50.932;3.142;2022-09-09T14:54:17;19.50;99.90
18229;DHT22;9239;50.932;3.142;2022-09-09T14:56:44;19.40;99.90
18229;DHT22;9239;50.932;3.142;2022-09-09T14:59:13;19.20;99.90
18229;DHT22;9239;50.932;3.142;2022-09-09T15:01:39;19.10;99.90
18229;DHT22;9239;50.932;3.142;2022-09-09T15:04:10;19.10;99.90
18229;DHT22;9239;50.932;3.142;2022-09-09T15:06:38;19.00;99.90
18229;DHT22;9239;50.932;3.142;2022-09-09T15:09:06;19.10;99.90
18229;DHT22;9239;50.932;3.142;2022-09-09T15:11:35;19.30;99.90
18229;DHT22;9239;50.932;3.142;2022-09-09T15:14:03;19.40;99.90
18229;DHT22;9239;50.932;3.142;2022-09-09T15:16:31;19.50;99.90
18229;DHT22;9239;50.932;3.142;2022-09-09T15:18:59;19.60;99.90
18229;DHT22;9239;50.932;3.142;2022-09-09T15:21:29;19.60;99.90
18229;DHT22;9239;50.932;3.142;2022-09-09T15:23:56;19.50;99.90
18229;DHT22;9239;50.932;3.142;2022-09-09T15:26:24;19.50;99.90
18229;DHT22;9239;50.932;3.142;2022-09-09T15:28:51;19.50;99.90
18229;DHT22;9239;50.932;3.142;2022-09-09T15:31:20;19.60;99.90
18229;DHT22;9239;50.932;3.142;2022-09-09T15:33:48;19.50;99.90
18229;DHT22;9239;50.932;3.142;2022-09-09T15:36:17;19.50;99.90
18229;DHT22;9239;50.932;3.142;2022-09-09T15:38:45;19.50;99.90
18229;DHT22;9239;50.932;3.142;2022-09-09T15:41:13;19.50;99.90
18229;DHT22;9239;50.932;3.142;2022-09-09T15:43:43;19.40;99.90
18229;DHT22;9239;50.932;3.142;2022-09-09T15:46:26;19.40;99.90
18229;DHT22;9239;50.932;3.142;2022-09-09T15:48:55;19.40;99.90
18229;DHT22;9239;50.932;3.142;2022-09-09T15:51:22;19.40;99.90
18229;DHT22;9239;50.932;3.142;2022-09-09T15:53:55;19.50;99.90
18229;DHT22;9239;50.932;3.142;2022-09-09T15:56:22;19.50;99.90
18229;DHT22;9239;50.932;3.142;2022-09-09T15:58:49;19.50;99.90
18229;DHT22;9239;50.932;3.142;2022-09-09T16:01:18;19.40;99.90
18229;DHT22;9239;50.932;3.142;2022-09-09T16:03:45;19.30;99.90
18229;DHT22;9239;50.932;3.142;2022-09-09T16:06:13;19.30;99.90
18229;DHT22;9239;50.932;3.142;2022-09-09T16:08:42;19.20;99.90
18229;DHT22;9239;50.932;3.142;2022-09-09T16:11:12;19.20;99.90